ITY210 LIME-EDDH
Flight info
| Callsign | ITY210 |
|---|---|
| Flight time | 1h 40m |
| Altitude | 18000 |
| Route | OSKOR M985 TAGIP/N0450F360 DCT BRENO DCT KONIN DCT KEMES DCT ABGUS DCT DIRBO/N0403F230 T902 RARUP RARUP3P |
| Aircraft | A321/M-SDE3FGHIRWY/LB1 |
Departure
| Time | 2026-04-24 21:13 |
|---|---|
| Airport | Il Caravaggio International Airport (LIME) |
Arrival
| Time | 2026-04-24 22:54 |
|---|---|
| Airport | Hamburg Helmut Schmidt Airport (EDDH) |
| Time | Latitude | Longitude | Altitude | Speed | Heading |
|---|---|---|---|---|---|
| 2026-04-24 20:20 | 45.66657 | 9.70063 | 790 ft | 0 kts | 195° |
| 2026-04-24 21:04 | 45.66668 | 9.70067 | 790 ft | 4 kts | 192° |
| 2026-04-24 21:05 | 45.66695 | 9.70072 | 790 ft | 4 kts | 178° |
| 2026-04-24 21:05 | 45.66721 | 9.70066 | 790 ft | 4 kts | 150° |
| 2026-04-24 21:05 | 45.66735 | 9.70046 | 790 ft | 1 kts | 105° |
| 2026-04-24 21:05 | 45.66736 | 9.70040 | 790 ft | 0 kts | 105° |
| 2026-04-24 21:08 | 45.66733 | 9.70057 | 790 ft | 4 kts | 105° |
| 2026-04-24 21:08 | 45.66726 | 9.70095 | 790 ft | 4 kts | 105° |
| 2026-04-24 21:08 | 45.66718 | 9.70136 | 789 ft | 6 kts | 105° |
| 2026-04-24 21:08 | 45.66703 | 9.70216 | 789 ft | 11 kts | 105° |
| 2026-04-24 21:09 | 45.66677 | 9.70352 | 788 ft | 17 kts | 105° |
| 2026-04-24 21:09 | 45.66641 | 9.70543 | 787 ft | 22 kts | 105° |
| 2026-04-24 21:09 | 45.66605 | 9.70754 | 785 ft | 22 kts | 104° |
| 2026-04-24 21:09 | 45.66567 | 9.70962 | 784 ft | 22 kts | 105° |
| 2026-04-24 21:10 | 45.66519 | 9.71166 | 782 ft | 22 kts | 113° |
| 2026-04-24 21:10 | 45.66475 | 9.71370 | 781 ft | 21 kts | 105° |
| 2026-04-24 21:10 | 45.66441 | 9.71577 | 779 ft | 21 kts | 90° |
| 2026-04-24 21:10 | 45.66470 | 9.71782 | 777 ft | 21 kts | 78° |
| 2026-04-24 21:11 | 45.66453 | 9.71989 | 775 ft | 21 kts | 103° |
| 2026-04-24 21:11 | 45.66417 | 9.72193 | 774 ft | 21 kts | 105° |
| 2026-04-24 21:11 | 45.66381 | 9.72390 | 773 ft | 10 kts | 103° |
| 2026-04-24 21:11 | 45.66380 | 9.72393 | 773 ft | 0 kts | 101° |
| 2026-04-24 21:12 | 45.66380 | 9.72396 | 773 ft | 2 kts | 100° |
| 2026-04-24 21:12 | 45.66402 | 9.72458 | 773 ft | 13 kts | 31° |
| 2026-04-24 21:12 | 45.66476 | 9.72350 | 773 ft | 23 kts | 288° |
| 2026-04-24 21:12 | 45.66530 | 9.72079 | 775 ft | 36 kts | 285° |
| 2026-04-24 21:13 | 45.66622 | 9.71584 | 780 ft | 81 kts | 284° |
| 2026-04-24 21:13 | 45.66843 | 9.70410 | 791 ft | 159 kts | 286° |
| 2026-04-24 21:13 | 45.67154 | 9.68770 | 1469 ft | 170 kts | 286° |
| 2026-04-24 21:13 | 45.67464 | 9.67159 | 2502 ft | 167 kts | 286° |
| 2026-04-24 21:14 | 45.67786 | 9.65576 | 3512 ft | 163 kts | 287° |
| 2026-04-24 21:14 | 45.67945 | 9.64114 | 4346 ft | 139 kts | 258° |
| 2026-04-24 21:14 | 45.67531 | 9.62818 | 4615 ft | 156 kts | 234° |
| 2026-04-24 21:14 | 45.66769 | 9.61663 | 5031 ft | 155 kts | 219° |
| 2026-04-24 21:15 | 45.65894 | 9.60808 | 5513 ft | 157 kts | 211° |
| 2026-04-24 21:15 | 45.64857 | 9.60096 | 5766 ft | 172 kts | 194° |
| 2026-04-24 21:15 | 45.63654 | 9.60019 | 6169 ft | 177 kts | 167° |
| 2026-04-24 21:15 | 45.62469 | 9.60599 | 6400 ft | 194 kts | 158° |
| 2026-04-24 21:16 | 45.61119 | 9.61360 | 6447 ft | 219 kts | 158° |
| 2026-04-24 21:16 | 45.59641 | 9.62225 | 6579 ft | 240 kts | 156° |
| 2026-04-24 21:16 | 45.58055 | 9.63185 | 7080 ft | 251 kts | 156° |
| 2026-04-24 21:16 | 45.56439 | 9.64147 | 7831 ft | 252 kts | 157° |
| 2026-04-24 21:17 | 45.54801 | 9.65075 | 8549 ft | 255 kts | 162° |
| 2026-04-24 21:17 | 45.53049 | 9.65487 | 9250 ft | 258 kts | 180° |
| 2026-04-24 21:17 | 45.51261 | 9.65190 | 9974 ft | 261 kts | 188° |
| 2026-04-24 21:17 | 45.49456 | 9.64779 | 10603 ft | 264 kts | 188° |
| 2026-04-24 21:18 | 45.47629 | 9.64362 | 11260 ft | 267 kts | 189° |
| 2026-04-24 21:18 | 45.45877 | 9.63481 | 11870 ft | 271 kts | 214° |
| 2026-04-24 21:18 | 45.44541 | 9.61599 | 12488 ft | 273 kts | 240° |
| 2026-04-24 21:18 | 45.43903 | 9.59081 | 13125 ft | 273 kts | 266° |
| 2026-04-24 21:19 | 45.44087 | 9.56408 | 13758 ft | 273 kts | 291° |
| 2026-04-24 21:19 | 45.45045 | 9.54010 | 14017 ft | 290 kts | 315° |
| 2026-04-24 21:19 | 45.46747 | 9.52367 | 14151 ft | 308 kts | 342° |
| 2026-04-24 21:19 | 45.48918 | 9.52010 | 14276 ft | 326 kts | 9° |
| 2026-04-24 21:20 | 45.52678 | 9.55867 | 14521 ft | 365 kts | 60° |
| 2026-04-24 21:20 | 45.53747 | 9.59217 | 14812 ft | 377 kts | 69° |
| 2026-04-24 21:20 | 45.54542 | 9.62814 | 15355 ft | 382 kts | 74° |
| 2026-04-24 21:21 | 45.55214 | 9.66505 | 15921 ft | 385 kts | 75° |
| 2026-04-24 21:21 | 45.55870 | 9.70225 | 16426 ft | 388 kts | 75° |
| 2026-04-24 21:21 | 45.56573 | 9.73961 | 16979 ft | 392 kts | 73° |
| 2026-04-24 21:21 | 45.57339 | 9.77704 | 17540 ft | 394 kts | 72° |
| 2026-04-24 21:22 | 45.58158 | 9.81463 | 18093 ft | 397 kts | 72° |
| 2026-04-24 21:22 | 45.59011 | 9.85232 | 18573 ft | 401 kts | 71° |
| 2026-04-24 21:22 | 45.59878 | 9.89024 | 19062 ft | 403 kts | 71° |
| 2026-04-24 21:22 | 45.60741 | 9.92794 | 19539 ft | 405 kts | 71° |
| 2026-04-24 21:23 | 45.61611 | 9.96635 | 20022 ft | 407 kts | 72° |
| 2026-04-24 21:23 | 45.62475 | 10.00502 | 20499 ft | 410 kts | 72° |
| 2026-04-24 21:23 | 45.63334 | 10.04399 | 20954 ft | 412 kts | 72° |
| 2026-04-24 21:23 | 45.64193 | 10.08310 | 21428 ft | 414 kts | 71° |
| 2026-04-24 21:24 | 45.65322 | 10.12113 | 21901 ft | 416 kts | 62° |
| 2026-04-24 21:24 | 45.66885 | 10.15608 | 22365 ft | 418 kts | 54° |
| 2026-04-24 21:24 | 45.68595 | 10.18996 | 22845 ft | 421 kts | 54° |
| 2026-04-24 21:24 | 45.70308 | 10.22405 | 23309 ft | 423 kts | 54° |
| 2026-04-24 21:25 | 45.72026 | 10.25843 | 23772 ft | 425 kts | 54° |
| 2026-04-24 21:25 | 45.73728 | 10.29254 | 24141 ft | 427 kts | 54° |
| 2026-04-24 21:25 | 45.75454 | 10.32725 | 24496 ft | 430 kts | 54° |
| 2026-04-24 21:25 | 45.77188 | 10.36222 | 24849 ft | 432 kts | 54° |
| 2026-04-24 21:26 | 45.78932 | 10.39745 | 25201 ft | 434 kts | 54° |
| 2026-04-24 21:26 | 45.80695 | 10.43302 | 25568 ft | 437 kts | 54° |
| 2026-04-24 21:26 | 45.82460 | 10.46861 | 25918 ft | 439 kts | 54° |
| 2026-04-24 21:26 | 45.84233 | 10.50445 | 26258 ft | 442 kts | 55° |
| 2026-04-24 21:27 | 45.86012 | 10.54046 | 26605 ft | 444 kts | 55° |
| 2026-04-24 21:27 | 45.87800 | 10.57674 | 26928 ft | 446 kts | 55° |
| 2026-04-24 21:27 | 45.89597 | 10.61327 | 27243 ft | 449 kts | 55° |
| 2026-04-24 21:27 | 45.91480 | 10.64916 | 27547 ft | 451 kts | 49° |
| 2026-04-24 21:28 | 45.93722 | 10.68084 | 27841 ft | 454 kts | 40° |
| 2026-04-24 21:28 | 45.96275 | 10.70676 | 28140 ft | 457 kts | 31° |
| 2026-04-24 21:28 | 45.99134 | 10.72716 | 28452 ft | 460 kts | 24° |
| 2026-04-24 21:28 | 46.02071 | 10.74591 | 28745 ft | 462 kts | 25° |
| 2026-04-24 21:29 | 46.05017 | 10.76484 | 29048 ft | 464 kts | 25° |
| 2026-04-24 21:29 | 46.07957 | 10.78384 | 29507 ft | 462 kts | 25° |
| 2026-04-24 21:29 | 46.10892 | 10.80287 | 29923 ft | 461 kts | 25° |
| 2026-04-24 21:29 | 46.13818 | 10.82182 | 30318 ft | 461 kts | 25° |
| 2026-04-24 21:30 | 46.16744 | 10.84075 | 30655 ft | 460 kts | 25° |
| 2026-04-24 21:30 | 46.19660 | 10.85968 | 31009 ft | 459 kts | 25° |
| 2026-04-24 21:30 | 46.22571 | 10.87859 | 31367 ft | 458 kts | 25° |
| 2026-04-24 21:30 | 46.25474 | 10.89748 | 31729 ft | 457 kts | 25° |
| 2026-04-24 21:31 | 46.28338 | 10.91615 | 32101 ft | 457 kts | 25° |
| 2026-04-24 21:31 | 46.31273 | 10.93532 | 32483 ft | 456 kts | 25° |
| 2026-04-24 21:31 | 46.34122 | 10.95395 | 32866 ft | 455 kts | 25° |
| 2026-04-24 21:31 | 46.37003 | 10.97285 | 33264 ft | 454 kts | 25° |
| 2026-04-24 21:32 | 46.39877 | 10.99172 | 33646 ft | 453 kts | 25° |
| 2026-04-24 21:32 | 46.42746 | 11.01056 | 33944 ft | 452 kts | 25° |
| 2026-04-24 21:32 | 46.45616 | 11.02941 | 34288 ft | 452 kts | 24° |
| 2026-04-24 21:32 | 46.48482 | 11.04822 | 34586 ft | 452 kts | 24° |
| 2026-04-24 21:33 | 46.51340 | 11.06697 | 34915 ft | 451 kts | 24° |
| 2026-04-24 21:33 | 46.53231 | 11.07940 | 35132 ft | 450 kts | 24° |
| 2026-04-24 21:33 | 46.57046 | 11.10447 | 35548 ft | 449 kts | 24° |
| 2026-04-24 21:33 | 46.59894 | 11.12319 | 35868 ft | 448 kts | 24° |
| 2026-04-24 21:34 | 46.62736 | 11.14192 | 36080 ft | 449 kts | 24° |
| 2026-04-24 21:34 | 46.68399 | 11.17937 | 36121 ft | 446 kts | 23° |
| 2026-04-24 21:35 | 46.74039 | 11.21687 | 36123 ft | 445 kts | 23° |
| 2026-04-24 21:35 | 46.79678 | 11.25433 | 36120 ft | 445 kts | 23° |
| 2026-04-24 21:36 | 46.85274 | 11.29155 | 36134 ft | 446 kts | 23° |
| 2026-04-24 21:36 | 46.90926 | 11.32925 | 36133 ft | 446 kts | 23° |
| 2026-04-24 21:37 | 46.96649 | 11.36440 | 36131 ft | 445 kts | 14° |
| 2026-04-24 21:37 | 47.02738 | 11.37632 | 36135 ft | 442 kts | 358° |
| 2026-04-24 21:38 | 47.08897 | 11.37546 | 36133 ft | 442 kts | 358° |
| 2026-04-24 21:38 | 47.15048 | 11.37482 | 36156 ft | 443 kts | 359° |
| 2026-04-24 21:39 | 47.21210 | 11.37426 | 36157 ft | 443 kts | 359° |
| 2026-04-24 21:39 | 47.27371 | 11.37377 | 36164 ft | 443 kts | 358° |
| 2026-04-24 21:40 | 47.33500 | 11.37328 | 36162 ft | 443 kts | 358° |
| 2026-04-24 21:40 | 47.39678 | 11.37268 | 36158 ft | 443 kts | 358° |
| 2026-04-24 21:41 | 47.45849 | 11.37205 | 36162 ft | 443 kts | 358° |
| 2026-04-24 21:41 | 47.52011 | 11.37141 | 36163 ft | 443 kts | 358° |
| 2026-04-24 21:42 | 47.58139 | 11.37076 | 36161 ft | 443 kts | 358° |
| 2026-04-24 21:42 | 47.64307 | 11.37017 | 36149 ft | 443 kts | 358° |
| 2026-04-24 21:43 | 47.70489 | 11.36958 | 36150 ft | 444 kts | 357° |
| 2026-04-24 21:43 | 47.76672 | 11.36891 | 36149 ft | 444 kts | 357° |
| 2026-04-24 21:44 | 47.82821 | 11.36835 | 36156 ft | 444 kts | 357° |
| 2026-04-24 21:44 | 47.89004 | 11.36681 | 36169 ft | 444 kts | 355° |
| 2026-04-24 21:45 | 47.95177 | 11.36149 | 36168 ft | 443 kts | 353° |
| 2026-04-24 21:45 | 48.01334 | 11.35520 | 36167 ft | 443 kts | 354° |
| 2026-04-24 21:46 | 48.07505 | 11.34967 | 36165 ft | 443 kts | 354° |
| 2026-04-24 21:46 | 48.13667 | 11.34471 | 36170 ft | 443 kts | 354° |
| 2026-04-24 21:47 | 48.19831 | 11.33975 | 36171 ft | 443 kts | 354° |
| 2026-04-24 21:47 | 48.25984 | 11.33466 | 36168 ft | 443 kts | 354° |
| 2026-04-24 21:48 | 48.32100 | 11.32959 | 36162 ft | 443 kts | 354° |
| 2026-04-24 21:48 | 48.38299 | 11.32444 | 36156 ft | 443 kts | 354° |
| 2026-04-24 21:49 | 48.44411 | 11.31929 | 36155 ft | 443 kts | 354° |
| 2026-04-24 21:49 | 48.50567 | 11.31412 | 36154 ft | 443 kts | 354° |
| 2026-04-24 21:50 | 48.56722 | 11.30875 | 36149 ft | 443 kts | 353° |
| 2026-04-24 21:50 | 48.62890 | 11.30357 | 36138 ft | 443 kts | 353° |
| 2026-04-24 21:51 | 48.69057 | 11.29843 | 36137 ft | 444 kts | 353° |
| 2026-04-24 21:51 | 48.75219 | 11.29312 | 36141 ft | 444 kts | 353° |
| 2026-04-24 21:52 | 48.81352 | 11.28782 | 36144 ft | 443 kts | 353° |
| 2026-04-24 21:52 | 48.87516 | 11.28266 | 36145 ft | 443 kts | 353° |
| 2026-04-24 21:53 | 48.92638 | 11.27829 | 36154 ft | 443 kts | 353° |
| 2026-04-24 21:53 | 48.98796 | 11.27301 | 36172 ft | 443 kts | 353° |
| 2026-04-24 21:54 | 49.04963 | 11.26773 | 36172 ft | 443 kts | 353° |
| 2026-04-24 21:54 | 49.11117 | 11.26242 | 36166 ft | 442 kts | 353° |
| 2026-04-24 21:55 | 49.17263 | 11.25704 | 36166 ft | 442 kts | 353° |
| 2026-04-24 21:55 | 49.23409 | 11.25175 | 36177 ft | 442 kts | 352° |
| 2026-04-24 21:56 | 49.29553 | 11.24649 | 36167 ft | 442 kts | 352° |
| 2026-04-24 21:56 | 49.35692 | 11.24112 | 36156 ft | 441 kts | 352° |
| 2026-04-24 21:57 | 49.41790 | 11.23563 | 36150 ft | 441 kts | 352° |
| 2026-04-24 21:57 | 49.47919 | 11.23033 | 36153 ft | 441 kts | 352° |
| 2026-04-24 21:58 | 49.54054 | 11.22504 | 36144 ft | 441 kts | 352° |
| 2026-04-24 21:58 | 49.60188 | 11.22011 | 36134 ft | 442 kts | 353° |
| 2026-04-24 21:59 | 49.66334 | 11.21601 | 36147 ft | 442 kts | 353° |
| 2026-04-24 21:59 | 49.72482 | 11.21191 | 36155 ft | 441 kts | 352° |
| 2026-04-24 22:00 | 49.78619 | 11.20761 | 36157 ft | 441 kts | 352° |
| 2026-04-24 22:00 | 49.84716 | 11.20324 | 36163 ft | 441 kts | 352° |
| 2026-04-24 22:01 | 49.90844 | 11.19892 | 36178 ft | 440 kts | 352° |
| 2026-04-24 22:01 | 49.96959 | 11.19450 | 36170 ft | 440 kts | 352° |
| 2026-04-24 22:02 | 50.03075 | 11.19011 | 36183 ft | 439 kts | 352° |
| 2026-04-24 22:02 | 50.09180 | 11.18577 | 36175 ft | 439 kts | 352° |
| 2026-04-24 22:03 | 50.15280 | 11.18144 | 36194 ft | 439 kts | 352° |
| 2026-04-24 22:03 | 50.21369 | 11.17699 | 36193 ft | 438 kts | 352° |
| 2026-04-24 22:04 | 50.27451 | 11.17244 | 36188 ft | 437 kts | 352° |
| 2026-04-24 22:04 | 50.33535 | 11.16801 | 36182 ft | 437 kts | 352° |
| 2026-04-24 22:05 | 50.39606 | 11.16378 | 36195 ft | 437 kts | 352° |
| 2026-04-24 22:05 | 50.45674 | 11.15932 | 36178 ft | 436 kts | 351° |
| 2026-04-24 22:06 | 50.51748 | 11.15480 | 36169 ft | 437 kts | 351° |
| 2026-04-24 22:06 | 50.57789 | 11.15032 | 36160 ft | 437 kts | 352° |
| 2026-04-24 22:07 | 50.63862 | 11.14597 | 36159 ft | 437 kts | 352° |
| 2026-04-24 22:07 | 50.69958 | 11.14151 | 36153 ft | 437 kts | 352° |
| 2026-04-24 22:08 | 50.76051 | 11.13708 | 36147 ft | 438 kts | 351° |
| 2026-04-24 22:08 | 50.82141 | 11.13263 | 36159 ft | 438 kts | 351° |
| 2026-04-24 22:09 | 50.88220 | 11.12809 | 36153 ft | 438 kts | 351° |
| 2026-04-24 22:09 | 50.94308 | 11.12351 | 36146 ft | 437 kts | 351° |
| 2026-04-24 22:10 | 51.00348 | 11.11903 | 36139 ft | 437 kts | 351° |
| 2026-04-24 22:10 | 51.06427 | 11.11460 | 36163 ft | 437 kts | 351° |
| 2026-04-24 22:11 | 51.12516 | 11.11013 | 36161 ft | 437 kts | 351° |
| 2026-04-24 22:11 | 51.18585 | 11.10548 | 36151 ft | 437 kts | 351° |
| 2026-04-24 22:12 | 51.24669 | 11.10068 | 36147 ft | 437 kts | 351° |
| 2026-04-24 22:12 | 51.30738 | 11.09612 | 36166 ft | 437 kts | 351° |
| 2026-04-24 22:13 | 51.36811 | 11.09169 | 36155 ft | 436 kts | 351° |
| 2026-04-24 22:13 | 51.42871 | 11.08705 | 36146 ft | 436 kts | 351° |
| 2026-04-24 22:14 | 51.48939 | 11.08244 | 36137 ft | 437 kts | 351° |
| 2026-04-24 22:14 | 51.54979 | 11.07776 | 36154 ft | 437 kts | 352° |
| 2026-04-24 22:15 | 51.61093 | 11.07305 | 36144 ft | 437 kts | 352° |
| 2026-04-24 22:15 | 51.67131 | 11.06850 | 36143 ft | 437 kts | 352° |
| 2026-04-24 22:16 | 51.73214 | 11.06387 | 36139 ft | 437 kts | 352° |
| 2026-04-24 22:16 | 51.79299 | 11.05926 | 36150 ft | 437 kts | 352° |
| 2026-04-24 22:17 | 51.85392 | 11.05447 | 36146 ft | 437 kts | 351° |
| 2026-04-24 22:17 | 51.91431 | 11.04600 | 36142 ft | 434 kts | 347° |
| 2026-04-24 22:18 | 51.97401 | 11.03216 | 36141 ft | 433 kts | 346° |
| 2026-04-24 22:18 | 52.03369 | 11.01783 | 36175 ft | 433 kts | 346° |
| 2026-04-24 22:19 | 52.09349 | 11.00464 | 36165 ft | 433 kts | 347° |
| 2026-04-24 22:19 | 52.15299 | 10.99213 | 36163 ft | 433 kts | 347° |
| 2026-04-24 22:20 | 52.21272 | 10.97959 | 36161 ft | 433 kts | 347° |
| 2026-04-24 22:20 | 52.27263 | 10.96674 | 36188 ft | 433 kts | 346° |
| 2026-04-24 22:21 | 52.33233 | 10.95377 | 36180 ft | 432 kts | 346° |
| 2026-04-24 22:21 | 52.39201 | 10.94085 | 36158 ft | 433 kts | 346° |
| 2026-04-24 22:22 | 52.45176 | 10.92774 | 36150 ft | 433 kts | 346° |
| 2026-04-24 22:22 | 52.51149 | 10.91464 | 36177 ft | 433 kts | 346° |
| 2026-04-24 22:23 | 52.57092 | 10.90172 | 36159 ft | 433 kts | 346° |
| 2026-04-24 22:23 | 52.63066 | 10.88867 | 36154 ft | 433 kts | 346° |
| 2026-04-24 22:24 | 52.69043 | 10.87551 | 36149 ft | 433 kts | 346° |
| 2026-04-24 22:24 | 52.75010 | 10.86226 | 36145 ft | 433 kts | 346° |
| 2026-04-24 22:25 | 52.80916 | 10.84922 | 35778 ft | 423 kts | 345° |
| 2026-04-24 22:25 | 52.83824 | 10.84286 | 35393 ft | 419 kts | 345° |
| 2026-04-24 22:25 | 52.86663 | 10.83686 | 34995 ft | 415 kts | 345° |
| 2026-04-24 22:25 | 52.89529 | 10.83104 | 34599 ft | 413 kts | 345° |
| 2026-04-24 22:26 | 52.92372 | 10.82542 | 34208 ft | 410 kts | 345° |
| 2026-04-24 22:26 | 52.95191 | 10.81984 | 33771 ft | 407 kts | 345° |
| 2026-04-24 22:26 | 52.97997 | 10.81422 | 33335 ft | 404 kts | 345° |
| 2026-04-24 22:26 | 53.00775 | 10.80859 | 32902 ft | 401 kts | 345° |
| 2026-04-24 22:27 | 53.03532 | 10.80294 | 32472 ft | 398 kts | 345° |
| 2026-04-24 22:27 | 53.06270 | 10.79730 | 32039 ft | 395 kts | 345° |
| 2026-04-24 22:27 | 53.08987 | 10.79171 | 31624 ft | 392 kts | 345° |
| 2026-04-24 22:27 | 53.11686 | 10.78617 | 31216 ft | 390 kts | 345° |
| 2026-04-24 22:28 | 53.14366 | 10.78067 | 30812 ft | 387 kts | 345° |
| 2026-04-24 22:28 | 53.17030 | 10.77518 | 30389 ft | 384 kts | 345° |
| 2026-04-24 22:28 | 53.19673 | 10.76972 | 29916 ft | 383 kts | 346° |
| 2026-04-24 22:28 | 53.22323 | 10.76426 | 29412 ft | 381 kts | 346° |
| 2026-04-24 22:29 | 53.27519 | 10.75352 | 28468 ft | 376 kts | 347° |
| 2026-04-24 22:29 | 53.30113 | 10.74815 | 27998 ft | 374 kts | 348° |
| 2026-04-24 22:29 | 53.32691 | 10.74281 | 27549 ft | 371 kts | 348° |
| 2026-04-24 22:30 | 53.35252 | 10.73750 | 27118 ft | 369 kts | 348° |
| 2026-04-24 22:30 | 53.37792 | 10.73224 | 26687 ft | 366 kts | 348° |
| 2026-04-24 22:30 | 53.40311 | 10.72701 | 26269 ft | 364 kts | 348° |
| 2026-04-24 22:30 | 53.42811 | 10.72178 | 25857 ft | 361 kts | 348° |
| 2026-04-24 22:31 | 53.45299 | 10.71653 | 25454 ft | 359 kts | 348° |
| 2026-04-24 22:31 | 53.47767 | 10.71133 | 25046 ft | 357 kts | 348° |
| 2026-04-24 22:31 | 53.50223 | 10.70619 | 24656 ft | 354 kts | 348° |
| 2026-04-24 22:31 | 53.52638 | 10.70114 | 24294 ft | 352 kts | 348° |
| 2026-04-24 22:32 | 53.55063 | 10.69607 | 23935 ft | 350 kts | 349° |
| 2026-04-24 22:32 | 53.57428 | 10.68829 | 23554 ft | 341 kts | 334° |
| 2026-04-24 22:32 | 53.59392 | 10.66746 | 23119 ft | 331 kts | 312° |
| 2026-04-24 22:32 | 53.60666 | 10.63597 | 22692 ft | 325 kts | 291° |
| 2026-04-24 22:33 | 53.61113 | 10.59879 | 22242 ft | 325 kts | 270° |
| 2026-04-24 22:33 | 53.60685 | 10.56192 | 21800 ft | 329 kts | 250° |
| 2026-04-24 22:33 | 53.59682 | 10.52726 | 21339 ft | 330 kts | 246° |
| 2026-04-24 22:33 | 53.58634 | 10.49294 | 20964 ft | 327 kts | 246° |
| 2026-04-24 22:34 | 53.57759 | 10.45860 | 20831 ft | 311 kts | 262° |
| 2026-04-24 22:34 | 53.57862 | 10.42367 | 20711 ft | 294 kts | 291° |
| 2026-04-24 22:34 | 53.58985 | 10.39608 | 20566 ft | 285 kts | 317° |
| 2026-04-24 22:34 | 53.60491 | 10.37470 | 20263 ft | 282 kts | 319° |
| 2026-04-24 22:35 | 53.62010 | 10.35385 | 19932 ft | 281 kts | 319° |
| 2026-04-24 22:35 | 53.63520 | 10.33321 | 19608 ft | 279 kts | 319° |
| 2026-04-24 22:35 | 53.65046 | 10.31304 | 19286 ft | 279 kts | 326° |
| 2026-04-24 22:35 | 53.66894 | 10.30381 | 18985 ft | 284 kts | 358° |
| 2026-04-24 22:36 | 53.68796 | 10.31328 | 18638 ft | 294 kts | 29° |
| 2026-04-24 22:36 | 53.70337 | 10.33641 | 18251 ft | 301 kts | 45° |
| 2026-04-24 22:36 | 53.71611 | 10.36469 | 17864 ft | 303 kts | 51° |
| 2026-04-24 22:36 | 53.72787 | 10.39418 | 17516 ft | 302 kts | 52° |
| 2026-04-24 22:37 | 53.73969 | 10.42345 | 17183 ft | 300 kts | 50° |
| 2026-04-24 22:37 | 53.75188 | 10.45187 | 16859 ft | 298 kts | 48° |
| 2026-04-24 22:37 | 53.76450 | 10.47955 | 16547 ft | 295 kts | 46° |
| 2026-04-24 22:37 | 53.77718 | 10.50616 | 16235 ft | 293 kts | 45° |
| 2026-04-24 22:38 | 53.79012 | 10.53266 | 15935 ft | 291 kts | 44° |
| 2026-04-24 22:38 | 53.80308 | 10.55899 | 15639 ft | 289 kts | 44° |
| 2026-04-24 22:38 | 53.81588 | 10.58501 | 15391 ft | 285 kts | 44° |
| 2026-04-24 22:38 | 53.82426 | 10.60207 | 15227 ft | 283 kts | 44° |
| 2026-04-24 22:39 | 53.83673 | 10.62751 | 14979 ft | 279 kts | 44° |
| 2026-04-24 22:39 | 53.84682 | 10.65566 | 14737 ft | 285 kts | 67° |
| 2026-04-24 22:39 | 53.84899 | 10.68906 | 14490 ft | 291 kts | 95° |
| 2026-04-24 22:39 | 53.84223 | 10.72108 | 14247 ft | 291 kts | 124° |
| 2026-04-24 22:40 | 53.82798 | 10.74456 | 14011 ft | 285 kts | 153° |
| 2026-04-24 22:40 | 53.80976 | 10.75530 | 13771 ft | 272 kts | 180° |
| 2026-04-24 22:40 | 53.79153 | 10.75277 | 13501 ft | 256 kts | 206° |
| 2026-04-24 22:40 | 53.77637 | 10.73919 | 13236 ft | 240 kts | 229° |
| 2026-04-24 22:41 | 53.76478 | 10.71935 | 12962 ft | 235 kts | 236° |
| 2026-04-24 22:41 | 53.75424 | 10.69834 | 12698 ft | 233 kts | 238° |
| 2026-04-24 22:41 | 53.74406 | 10.67709 | 12441 ft | 232 kts | 239° |
| 2026-04-24 22:41 | 53.73656 | 10.65403 | 12181 ft | 218 kts | 265° |
| 2026-04-24 22:42 | 53.73715 | 10.62959 | 11959 ft | 206 kts | 295° |
| 2026-04-24 22:42 | 53.74535 | 10.61041 | 11742 ft | 204 kts | 320° |
| 2026-04-24 22:42 | 53.75681 | 10.59605 | 11393 ft | 208 kts | 324° |
| 2026-04-24 22:42 | 53.76807 | 10.58080 | 11085 ft | 207 kts | 317° |
| 2026-04-24 22:43 | 53.77964 | 10.56591 | 10670 ft | 212 kts | 335° |
| 2026-04-24 22:43 | 53.79448 | 10.56190 | 10151 ft | 230 kts | 4° |
| 2026-04-24 22:43 | 53.80964 | 10.57281 | 9468 ft | 256 kts | 32° |
| 2026-04-24 22:43 | 53.82247 | 10.59559 | 8761 ft | 274 kts | 41° |
| 2026-04-24 22:44 | 53.83804 | 10.61319 | 8062 ft | 269 kts | 10° |
| 2026-04-24 22:44 | 53.85576 | 10.61194 | 7778 ft | 246 kts | 338° |
| 2026-04-24 22:44 | 53.87009 | 10.59800 | 7454 ft | 234 kts | 322° |
| 2026-04-24 22:44 | 53.88241 | 10.58020 | 6995 ft | 232 kts | 317° |
| 2026-04-24 22:45 | 53.89142 | 10.55786 | 6539 ft | 233 kts | 290° |
| 2026-04-24 22:45 | 53.89232 | 10.53035 | 6065 ft | 240 kts | 263° |
| 2026-04-24 22:45 | 53.88472 | 10.50480 | 5567 ft | 251 kts | 234° |
| 2026-04-24 22:45 | 53.87258 | 10.48339 | 5066 ft | 251 kts | 233° |
| 2026-04-24 22:46 | 53.86129 | 10.46097 | 4592 ft | 249 kts | 236° |
| 2026-04-24 22:46 | 53.85036 | 10.43825 | 4137 ft | 247 kts | 236° |
| 2026-04-24 22:46 | 53.83952 | 10.41578 | 3678 ft | 245 kts | 236° |
| 2026-04-24 22:46 | 53.82871 | 10.39350 | 3237 ft | 244 kts | 236° |
| 2026-04-24 22:47 | 53.81807 | 10.37165 | 2981 ft | 234 kts | 237° |
| 2026-04-24 22:47 | 53.80812 | 10.35124 | 2971 ft | 215 kts | 237° |
| 2026-04-24 22:47 | 53.79900 | 10.33252 | 2958 ft | 198 kts | 237° |
| 2026-04-24 22:47 | 53.79047 | 10.31498 | 2972 ft | 190 kts | 238° |
| 2026-04-24 22:48 | 53.78215 | 10.29783 | 2994 ft | 187 kts | 238° |
| 2026-04-24 22:48 | 53.77404 | 10.28117 | 2998 ft | 186 kts | 238° |
| 2026-04-24 22:48 | 53.76583 | 10.26433 | 3001 ft | 185 kts | 237° |
| 2026-04-24 22:48 | 53.75779 | 10.24791 | 3005 ft | 174 kts | 238° |
| 2026-04-24 22:49 | 53.75051 | 10.23309 | 2992 ft | 156 kts | 239° |
| 2026-04-24 22:49 | 53.74382 | 10.21937 | 2993 ft | 148 kts | 240° |
| 2026-04-24 22:49 | 53.73735 | 10.20611 | 2998 ft | 145 kts | 240° |
| 2026-04-24 22:49 | 53.73096 | 10.19302 | 2952 ft | 144 kts | 240° |
| 2026-04-24 22:50 | 53.72458 | 10.17995 | 2822 ft | 144 kts | 239° |
| 2026-04-24 22:50 | 53.71818 | 10.16689 | 2650 ft | 144 kts | 239° |
| 2026-04-24 22:50 | 53.71180 | 10.15387 | 2465 ft | 143 kts | 239° |
| 2026-04-24 22:50 | 53.70549 | 10.14101 | 2277 ft | 141 kts | 240° |
| 2026-04-24 22:51 | 53.69931 | 10.12841 | 2085 ft | 138 kts | 240° |
| 2026-04-24 22:51 | 53.69326 | 10.11608 | 1899 ft | 135 kts | 239° |
| 2026-04-24 22:51 | 53.68731 | 10.10397 | 1711 ft | 133 kts | 239° |
| 2026-04-24 22:51 | 53.68144 | 10.09202 | 1528 ft | 132 kts | 239° |
| 2026-04-24 22:52 | 53.67559 | 10.08011 | 1343 ft | 132 kts | 239° |
| 2026-04-24 22:52 | 53.66983 | 10.06838 | 1154 ft | 131 kts | 238° |
| 2026-04-24 22:52 | 53.66402 | 10.05657 | 968 ft | 132 kts | 238° |
| 2026-04-24 22:52 | 53.65822 | 10.04479 | 787 ft | 130 kts | 237° |
| 2026-04-24 22:53 | 53.65255 | 10.03328 | 610 ft | 127 kts | 236° |
| 2026-04-24 22:53 | 53.64692 | 10.02186 | 439 ft | 126 kts | 237° |
| 2026-04-24 22:53 | 53.64138 | 10.01051 | 252 ft | 127 kts | 236° |
| 2026-04-24 22:53 | 53.63566 | 9.99917 | 68 ft | 127 kts | 235° |
| 2026-04-24 22:54 | 53.63118 | 9.98955 | 46 ft | 65 kts | 229° |
| 2026-04-24 22:54 | 53.62983 | 9.98702 | 44 ft | 0 kts | 227° |
| 2026-04-24 22:54 | 53.62944 | 9.98630 | 43 ft | 21 kts | 228° |
| 2026-04-24 22:54 | 53.62850 | 9.98519 | 44 ft | 15 kts | 200° |
| 2026-04-24 22:55 | 53.62772 | 9.98480 | 44 ft | 0 kts | 186° |
| 2026-04-24 22:56 | 53.62771 | 9.98480 | 44 ft | 1 kts | 186° |
| 2026-04-24 22:56 | 53.62757 | 9.98477 | 44 ft | 7 kts | 186° |
| 2026-04-24 22:56 | 53.62679 | 9.98516 | 43 ft | 15 kts | 99° |
| 2026-04-24 22:57 | 53.62717 | 9.98606 | 43 ft | 6 kts | 51° |
| 2026-04-24 22:57 | 53.62771 | 9.98717 | 43 ft | 21 kts | 50° |
| 2026-04-24 22:57 | 53.62831 | 9.98895 | 43 ft | 14 kts | 106° |
| 2026-04-24 22:57 | 53.62760 | 9.98994 | 43 ft | 13 kts | 153° |
| 2026-04-24 22:58 | 53.62737 | 9.99046 | 44 ft | 4 kts | 83° |
| 2026-04-24 22:58 | 53.62743 | 9.99083 | 44 ft | 3 kts | 62° |
| 2026-04-24 22:58 | 53.62749 | 9.99108 | 44 ft | 2 kts | 68° |
| 2026-04-24 22:58 | 53.62753 | 9.99125 | 42 ft | 0 kts | 67° |